Catàleg de serveis del Meteocat
Campanya meteocatpedra

Dades de l'estació automàtica Vinyols i els Arcs

?
?
Resum diari 23:00 TU
Dades diàries de l'estació meteorològica
Temperatura mitjana 26.0 °C
Temperatura màxima 34.4 °C 13:51 TU
Temperatura mínima 19.8 °C 23:01 TU
Humitat relativa mitjana 54%
Precipitació acumulada 0.0 mm
Ratxa màxima del vent (2 m) 28.1 km/h - 275º 8:19 TU
Irradiació solar global 29.5 MJ/m2

El tram horari està expressat en Temps Universal (TU). Cal sumar una hora en horari d'hivern i dues en horari d'estiu per passar a l'hora oficial.

Vinyols i els Arcs

Metadades estació meteorol´gica
Municipi Vinyols i els Arcs
Comarca Baix Camp
Altitud 29 m
Data alta 17.05.1989
Estat actual Operativa
Dades de període
Període
TU
TM
°C
TX
°C
TN
°C
HRM
%
PPT
mm
VVM (2 m)
km/h
DVM (2 m)
graus
VVX (2 m)
km/h
RS
W/m2
00:00 - 00:30 22.8 23.1 22.5 60 0.0 1.4 276 5.0 0
00:30 - 01:00 23.2 23.7 22.6 55 0.0 4.7 300 13.7 0
01:00 - 01:30 23.7 23.8 23.4 51 0.0 6.5 301 19.1 0
01:30 - 02:00 23.4 23.6 23.2 50 0.0 6.5 305 18.7 0
02:00 - 02:30 23.0 23.2 22.7 50 0.0 7.6 301 18.0 0
02:30 - 03:00 22.5 22.7 22.4 50 0.0 7.6 300 18.0 0
03:00 - 03:30 22.3 22.4 22.2 50 0.0 6.8 303 23.4 0
03:30 - 04:00 22.0 22.2 21.9 50 0.0 5.0 297 14.0 0
04:00 - 04:30 21.9 22.1 21.8 50 0.0 6.8 299 15.5 0
04:30 - 05:00 22.0 22.1 21.9 50 0.0 7.2 304 17.6 8
05:00 - 05:30 22.1 22.3 22.0 50 0.0 7.2 307 20.2 56
05:30 - 06:00 22.5 22.7 22.3 50 0.0 7.9 308 25.6 131
06:00 - 06:30 23.0 23.3 22.7 49 0.0 10.1 305 23.4 228
06:30 - 07:00 23.7 24.0 23.3 48 0.0 8.6 311 20.5 318
07:00 - 07:30 24.4 24.8 24.0 47 0.0 10.4 304 24.8 414
07:30 - 08:00 25.3 25.8 24.9 45 0.0 11.2 301 24.8 513
08:00 - 08:30 26.2 26.9 25.8 44 0.0 12.6 304 28.1 604
08:30 - 09:00 27.2 27.8 26.8 42 0.0 11.5 298 24.1 674
09:00 - 09:30 28.3 28.7 27.8 40 0.0 10.8 297 25.9 721
09:30 - 10:00 29.0 29.7 28.1 39 0.0 10.8 298 23.0 812
10:00 - 10:30 30.0 30.5 29.5 37 0.0 9.0 292 20.2 868
10:30 - 11:00 30.8 31.7 30.1 35 0.0 7.9 283 24.5 900
11:00 - 11:30 31.8 32.3 31.2 34 0.0 7.9 279 20.2 927
11:30 - 12:00 32.2 32.9 31.7 32 0.0 6.8 249 20.2 945
12:00 - 12:30 33.0 33.5 32.4 31 0.0 7.9 273 22.7 959
12:30 - 13:00 33.3 33.8 32.5 30 0.0 9.0 278 25.6 950
13:00 - 13:30 33.5 33.7 33.2 29 0.0 11.2 292 27.7 927
13:30 - 14:00 34.1 34.4 33.2 28 0.0 11.2 298 25.6 889
14:00 - 14:30 32.7 33.7 30.3 40 0.0 6.5 96 19.1 825
14:30 - 15:00 29.3 30.1 28.6 52 0.0 9.7 109 24.8 765
15:00 - 15:30 29.0 29.3 28.6 54 0.0 9.0 123 20.2 691
15:30 - 16:00 28.3 28.8 27.7 60 0.0 9.7 152 19.4 604
16:00 - 16:30 27.9 28.2 27.7 60 0.0 8.6 154 19.1 514
16:30 - 17:00 27.7 27.8 27.4 60 0.0 6.5 135 14.8 424
17:00 - 17:30 27.3 27.6 27.1 59 0.0 6.1 136 13.0 328
17:30 - 18:00 27.0 27.5 26.7 58 0.0 5.0 122 13.0 232
18:00 - 18:30 26.6 26.9 26.2 60 0.0 4.3 108 10.8 142
18:30 - 19:00 26.0 26.2 25.6 63 0.0 3.2 126 9.0 64
19:00 - 19:30 25.2 25.6 25.0 72 0.0 4.3 110 10.8 9
19:30 - 20:00 24.7 25.0 24.5 76 0.0 4.3 84 10.8 0
20:00 - 20:30 24.3 24.5 24.2 76 0.0 2.9 82 9.7 0
20:30 - 21:00 24.3 24.5 24.0 74 0.0 2.5 87 8.3 0
21:00 - 21:30 23.1 23.9 22.3 79 0.0 0.0 57 1.8 0
21:30 - 22:00 21.2 22.2 20.6 88 0.0 0.0 0 0.0 0
22:00 - 22:30 20.4 20.6 20.2 92 0.0 0.0 57 0.7 0
22:30 - 23:00 20.4 20.8 19.8 91 0.0 0.0 57 0.0 0
23:00 - 23:30 20.1 21.3 19.8 93 0.0 0.7 337 5.8 0

Les dades en taronja només han passat un control de qualitat automàtic. Resta pendent la seva validació definitiva.